Time;durP1;ratioP1;P1;durP2;ratioP2;P2;SDS_P1;SDS_P2;PMS_P1;PMS_P2;Temp;Humidity;BMP_temperature;BMP_pressure;BME280_temperature;BME280_humidity;BME280_pressure;Samples;Min_cycle;Max_cycle;Signal;HPM_P1;HPM_P2
2022/12/11 00:01:28;;;;;;;;;;;;;;;2.73;100.00;98325.56;5590501;31;34796;-72
2022/12/11 00:04:35;;;;;;;;;;;;;;;2.67;100.00;98311.34;5590739;31;34879;-73
2022/12/11 00:07:41;;;;;;;;;;;;;;;2.68;100.00;98306.94;5590735;31;34321;-72
2022/12/11 00:10:48;;;;;;;;;;;;;;;2.59;100.00;98303.53;5577034;31;34412;-73
2022/12/11 00:13:55;;;;;;;;;;;;;;;2.60;100.00;98305.16;5576063;31;34404;-71
2022/12/11 00:17:04;;;;;;;;;;;;;;;2.53;100.00;98283.25;5590480;31;34848;-71
2022/12/11 00:20:11;;;;;;;;;;;;;;;2.50;100.00;98281.00;5590350;31;34519;-72
2022/12/11 00:23:21;;;;;;;;;;;;;;;2.52;100.00;98303.38;5590530;31;34206;-72
2022/12/11 00:26:27;;;;;;;;;;;;;;;2.46;100.00;98285.75;5576206;31;34285;-73
2022/12/11 00:29:35;;;;;;;;;;;;;;;2.44;100.00;98287.69;5590716;31;34856;-73
2022/12/11 00:32:42;;;;;;;;;;;;;;;2.44;100.00;98286.87;5576149;31;34248;-73
2022/12/11 00:35:52;;;;;;;;;;;;;;;2.43;100.00;98290.47;5590382;31;34982;-73
2022/12/11 00:39:00;;;;;;;;;;;;;;;2.36;100.00;98303.44;5590224;31;34887;-72
2022/12/11 00:42:08;;;;;;;;;;;;;;;2.33;100.00;98292.47;5575922;31;35725;-72
2022/12/11 00:45:15;;;;;;;;;;;;;;;2.37;100.00;98284.09;5590280;31;34383;-72
2022/12/11 00:48:22;;;;;;;;;;;;;;;2.34;100.00;98284.44;5590291;31;34242;-74
2022/12/11 00:51:28;;;;;;;;;;;;;;;2.31;100.00;98287.41;5590042;31;34500;-73
2022/12/11 00:54:36;;;;;;;;;;;;;;;2.23;100.00;98281.38;5590336;31;34939;-73
2022/12/11 00:57:43;;;;;;;;;;;;;;;2.22;100.00;98290.22;5575722;31;33312;-73
2022/12/11 01:00:51;;;;;;;;;;;;;;;2.20;100.00;98290.38;5589917;31;34212;-73
2022/12/11 01:03:58;;;;;;;;;;;;;;;2.13;100.00;98290.19;5590093;31;34702;-72
2022/12/11 01:07:05;;;;;;;;;;;;;;;2.11;100.00;98299.22;5590025;31;34860;-72
2022/12/11 01:10:23;;;;;;;;;;;;;;;2.09;100.00;98294.13;5590004;31;34443;-72
2022/12/11 01:13:30;;;;;;;;;;;;;;;2.06;100.00;98281.41;5589956;31;34919;-73
2022/12/11 01:16:35;;;;;;;;;;;;;;;2.03;100.00;98294.78;5576461;31;34924;-72
2022/12/11 01:19:41;;;;;;;;;;;;;;;2.00;100.00;98295.13;5589929;31;34797;-73
2022/12/11 01:22:51;;;;;;;;;;;;;;;1.98;100.00;98317.19;5589444;31;34535;-73
2022/12/11 01:26:03;;;;;;;;;;;;;;;1.99;100.00;98296.09;5589882;31;34634;-72
2022/12/11 01:29:10;;;;;;;;;;;;;;;1.94;100.00;98302.78;5575845;31;34718;-72
2022/12/11 01:32:19;;;;;;;;;;;;;;;1.91;100.00;98298.72;5589809;31;34183;-72
2022/12/11 01:35:25;;;;;;;;;;;;;;;1.86;100.00;98302.81;5589708;31;34865;-72
2022/12/11 01:38:32;;;;;;;;;;;;;;;1.83;100.00;98298.75;5589768;31;34287;-73
2022/12/11 01:41:43;;;;;;;;;;;;;;;1.85;100.00;98311.63;5589847;31;34227;-73
2022/12/11 01:44:50;;;;;;;;;;;;;;;1.80;100.00;98306.88;5589720;31;34291;-72
2022/12/11 01:47:59;;;;;;;;;;;;;;;1.76;100.00;98305.59;5589642;31;34344;-73
2022/12/11 01:51:07;;;;;;;;;;;;;;;1.73;100.00;98311.16;5589451;31;34972;-72
2022/12/11 01:54:17;;;;;;;;;;;;;;;1.70;100.00;98316.69;5589449;31;35067;-71
2022/12/11 01:57:24;;;;;;;;;;;;;;;1.65;100.00;98319.78;5576133;31;34367;-72
2022/12/11 02:00:34;;;;;;;;;;;;;;;1.58;100.00;98329.25;5576078;31;34980;-72
2022/12/11 02:03:41;;;;;;;;;;;;;;;1.58;100.00;98331.06;5589269;31;34326;-73
2022/12/11 02:06:50;;;;;;;;;;;;;;;1.61;100.00;98334.16;5589126;31;34759;-71
2022/12/11 02:09:58;;;;;;;;;;;;;;;1.51;100.00;98328.25;5589190;31;34311;-72
2022/12/11 02:13:11;;;;;;;;;;;;;;;1.48;100.00;98322.53;5589134;31;34277;-72
2022/12/11 02:16:28;;;;;;;;;;;;;;;1.47;100.00;98321.72;5589221;31;34213;-72
2022/12/11 02:19:55;;;;;;;;;;;;;;;1.40;100.00;98330.38;5589130;31;34852;-73
2022/12/11 02:23:12;;;;;;;;;;;;;;;1.34;100.00;98310.09;5589068;31;34624;-70
2022/12/11 02:26:36;;;;;;;;;;;;;;;1.26;100.00;98318.72;5575345;31;34843;-71
2022/12/11 02:29:46;;;;;;;;;;;;;;;1.21;100.00;98332.25;5588970;31;34653;-71
2022/12/11 02:32:56;;;;;;;;;;;;;;;1.16;100.00;98323.28;5574641;31;35215;-72
2022/12/11 02:36:04;;;;;;;;;;;;;;;1.13;100.00;98328.81;5589821;31;34320;-72
2022/12/11 02:39:12;;;;;;;;;;;;;;;1.08;100.00;98333.69;5591389;31;34414;-72
2022/12/11 02:42:20;;;;;;;;;;;;;;;1.03;100.00;98323.72;5591431;31;34878;-72
2022/12/11 02:45:27;;;;;;;;;;;;;;;1.01;100.00;98315.25;5577941;31;34576;-72
2022/12/11 02:48:35;;;;;;;;;;;;;;;1.00;100.00;98318.81;5591353;31;34802;-72
2022/12/11 02:51:43;;;;;;;;;;;;;;;0.98;100.00;98317.31;5577777;31;34357;-74
2022/12/11 02:54:50;;;;;;;;;;;;;;;0.91;100.00;98309.31;5576935;31;35270;-72
2022/12/11 02:58:00;;;;;;;;;;;;;;;0.92;100.00;98310.16;5591316;31;35098;-71
2022/12/11 03:01:06;;;;;;;;;;;;;;;0.84;100.00;98308.31;5570650;32;34609;-71
2022/12/11 03:04:13;;;;;;;;;;;;;;;0.82;100.00;98307.66;5571396;32;34274;-72
2022/12/11 03:07:23;;;;;;;;;;;;;;;0.80;100.00;98310.41;5571413;32;34820;-73
2022/12/11 03:10:31;;;;;;;;;;;;;;;0.76;100.00;98305.66;5570467;32;32915;-71
2022/12/11 03:13:41;;;;;;;;;;;;;;;0.73;100.00;98298.12;5570414;32;34953;-72
2022/12/11 03:16:55;;;;;;;;;;;;;;;0.74;100.00;98295.38;5571359;32;34363;-73
2022/12/11 03:20:08;;;;;;;;;;;;;;;0.71;100.00;98293.09;5571331;32;34627;-71
2022/12/11 03:23:20;;;;;;;;;;;;;;;0.68;100.00;98295.16;5571406;32;34556;-73
2022/12/11 03:26:27;;;;;;;;;;;;;;;0.72;100.00;98299.94;5571388;32;34285;-72
2022/12/11 03:29:37;;;;;;;;;;;;;;;0.75;100.00;98306.63;5570537;32;35131;-72
2022/12/11 03:32:52;;;;;;;;;;;;;;;0.71;100.00;98303.53;5571179;32;34969;-72
2022/12/11 03:36:09;;;;;;;;;;;;;;;0.67;100.00;98304.00;5570548;32;34312;-72
2022/12/11 03:39:18;;;;;;;;;;;;;;;0.71;100.00;98295.69;5571201;32;34916;-73
2022/12/11 03:42:26;;;;;;;;;;;;;;;0.64;100.00;98297.28;5570456;32;34158;-73
2022/12/11 03:45:36;;;;;;;;;;;;;;;0.65;100.00;98285.87;5571265;32;33751;-72
2022/12/11 03:48:46;;;;;;;;;;;;;;;0.61;100.00;98286.34;5570972;32;34947;-72
2022/12/11 03:51:55;;;;;;;;;;;;;;;0.62;100.00;98301.03;5571156;32;34336;-72
2022/12/11 03:55:03;;;;;;;;;;;;;;;0.63;100.00;98316.50;5571022;32;34699;-71
2022/12/11 03:58:10;;;;;;;;;;;;;;;0.62;100.00;98290.59;5571071;32;34199;-72
2022/12/11 04:01:18;;;;;;;;;;;;;;;0.63;100.00;98290.41;5568338;32;35028;-71
2022/12/11 04:04:26;;;;;;;;;;;;;;;0.59;100.00;98307.38;5571064;32;34719;-72
2022/12/11 04:07:37;;;;;;;;;;;;;;;0.55;100.00;98302.63;5570930;32;34907;-70
2022/12/11 04:10:44;;;;;;;;;;;;;;;0.52;100.00;98301.16;5570852;32;34390;-70
2022/12/11 04:15:00;;;;;;;;;;;;;;;0.53;100.00;98313.22;5570920;32;34987;-71
2022/12/11 04:24:14;;;;;;;;;;;;;;;0.50;100.00;98300.47;5570738;32;34815;-72
2022/12/11 04:24:14;;;;;;;;;;;;;;;0.51;100.00;98309.94;5570768;32;34753;-71
2022/12/11 04:30:54;;;;;;;;;;;;;;;0.52;100.00;98313.38;5570677;32;34253;-72
2022/12/11 04:33:59;;;;;;;;;;;;;;;0.51;100.00;98328.19;5569809;32;34560;-70
2022/12/11 04:37:15;;;;;;;;;;;;;;;0.50;100.00;98317.91;5570807;32;34283;-71
2022/12/11 04:40:21;;;;;;;;;;;;;;;0.50;100.00;98337.00;5570646;32;34297;-71
2022/12/11 04:43:28;;;;;;;;;;;;;;;0.50;100.00;98331.78;5569716;32;34162;-72
2022/12/11 04:46:34;;;;;;;;;;;;;;;0.48;100.00;98338.13;5569820;32;34243;-72
2022/12/11 04:49:41;;;;;;;;;;;;;;;0.47;100.00;98337.31;5569689;32;34505;-72
2022/12/11 04:52:45;;;;;;;;;;;;;;;0.50;100.00;98349.22;5570431;32;34209;-72
2022/12/11 04:55:53;;;;;;;;;;;;;;;0.50;100.00;98351.81;5569717;32;34149;-71
2022/12/11 04:59:00;;;;;;;;;;;;;;;0.53;100.00;98356.75;5568988;32;35307;-72
2022/12/11 05:02:09;;;;;;;;;;;;;;;0.52;100.00;98368.16;5583372;31;34935;-72
2022/12/11 05:05:15;;;;;;;;;;;;;;;0.54;100.00;98374.03;5589868;31;34591;-72
2022/12/11 05:08:22;;;;;;;;;;;;;;;0.55;100.00;98367.84;5576573;31;34828;-70
2022/12/11 05:11:28;;;;;;;;;;;;;;;0.56;100.00;98375.53;5589926;31;34638;-72
2022/12/11 05:14:34;;;;;;;;;;;;;;;0.57;100.00;98381.56;5589998;31;34227;-71
2022/12/11 05:17:40;;;;;;;;;;;;;;;0.57;100.00;98398.03;5590032;31;34385;-71
2022/12/11 05:21:01;;;;;;;;;;;;;;;0.59;100.00;98379.59;5576626;31;34439;-71
2022/12/11 05:24:06;;;;;;;;;;;;;;;0.56;100.00;98382.53;5590357;31;34859;-71
2022/12/11 05:27:13;;;;;;;;;;;;;;;0.58;100.00;98391.03;5589802;31;34343;-70
2022/12/11 05:30:22;;;;;;;;;;;;;;;0.60;100.00;98396.91;5589697;31;34755;-71
2022/12/11 05:33:29;;;;;;;;;;;;;;;0.64;100.00;98395.63;5589539;31;34978;-71
2022/12/11 05:36:36;;;;;;;;;;;;;;;0.61;100.00;98391.53;5589492;31;34488;-71
2022/12/11 05:39:44;;;;;;;;;;;;;;;0.62;100.00;98398.41;5589646;31;34939;-70
2022/12/11 05:42:51;;;;;;;;;;;;;;;0.58;100.00;98389.22;5589872;31;34401;-71
2022/12/11 05:46:04;;;;;;;;;;;;;;;0.62;100.00;98389.75;5563066;31;35106;-71
2022/12/11 05:49:10;;;;;;;;;;;;;;;0.63;100.00;98378.34;5589524;31;35104;-70
2022/12/11 05:52:23;;;;;;;;;;;;;;;0.63;100.00;98388.78;5589397;31;34917;-71
2022/12/11 05:55:28;;;;;;;;;;;;;;;0.59;100.00;98374.38;5576019;31;35038;-71
2022/12/11 05:58:39;;;;;;;;;;;;;;;0.59;100.00;98387.44;5589378;31;34236;-72
2022/12/11 06:01:46;;;;;;;;;;;;;;;0.58;100.00;98396.25;5589165;31;34874;-71
2022/12/11 06:04:53;;;;;;;;;;;;;;;0.58;100.00;98391.81;5589323;31;34225;-71
2022/12/11 06:08:03;;;;;;;;;;;;;;;0.54;100.00;98400.94;5589087;31;34012;-71
2022/12/11 06:11:09;;;;;;;;;;;;;;;0.59;100.00;98403.91;5577297;31;34313;-71
2022/12/11 06:14:17;;;;;;;;;;;;;;;0.57;100.00;98412.88;5577529;31;34301;-70
2022/12/11 06:17:23;;;;;;;;;;;;;;;0.57;100.00;98418.09;5591494;31;34589;-71
2022/12/11 06:20:31;;;;;;;;;;;;;;;0.57;100.00;98424.13;5591460;31;34363;-70
2022/12/11 06:23:39;;;;;;;;;;;;;;;0.58;100.00;98430.97;5591445;31;34167;-70
2022/12/11 06:26:44;;;;;;;;;;;;;;;0.58;100.00;98435.38;5591457;31;34135;-68
2022/12/11 06:29:48;;;;;;;;;;;;;;;0.58;100.00;98438.78;5577868;31;35018;-68
2022/12/11 06:32:57;;;;;;;;;;;;;;;0.60;100.00;98455.13;5591285;31;34343;-66
2022/12/11 06:36:08;;;;;;;;;;;;;;;0.60;100.00;98449.06;5591173;31;34241;-68
2022/12/11 06:39:14;;;;;;;;;;;;;;;0.66;100.00;98458.91;5590593;31;35107;-67
2022/12/11 06:42:27;;;;;;;;;;;;;;;0.67;100.00;98458.78;5591198;31;34375;-67
2022/12/11 06:45:37;;;;;;;;;;;;;;;0.69;100.00;98474.25;5591189;31;34319;-67
2022/12/11 06:48:46;;;;;;;;;;;;;;;0.64;100.00;98463.47;5591309;31;33946;-68
2022/12/11 06:51:52;;;;;;;;;;;;;;;0.65;100.00;98486.81;5577474;31;34249;-68
2022/12/11 06:54:59;;;;;;;;;;;;;;;0.61;100.00;98480.25;5591091;31;34859;-69
2022/12/11 06:58:08;;;;;;;;;;;;;;;0.60;100.00;98507.31;5591158;31;34380;-69
2022/12/11 07:01:20;;;;;;;;;;;;;;;0.64;100.00;98505.19;5590983;31;34182;-68
2022/12/11 07:04:29;;;;;;;;;;;;;;;0.63;100.00;98501.78;5590964;31;34398;-69
2022/12/11 07:07:37;;;;;;;;;;;;;;;0.63;100.00;98514.03;5590834;31;34716;-68
2022/12/11 07:10:43;;;;;;;;;;;;;;;0.66;100.00;98521.53;5576813;31;33211;-68
2022/12/11 07:13:51;;;;;;;;;;;;;;;0.64;100.00;98515.63;5591118;31;34768;-67
2022/12/11 07:17:00;;;;;;;;;;;;;;;0.70;100.00;98526.31;5590810;31;34377;-67
2022/12/11 07:20:08;;;;;;;;;;;;;;;0.73;100.00;98527.78;5590860;31;34179;-68
2022/12/11 07:23:13;;;;;;;;;;;;;;;0.75;100.00;98536.28;5590327;31;34711;-69
2022/12/11 07:26:22;;;;;;;;;;;;;;;0.79;100.00;98535.84;5590665;31;34922;-68
2022/12/11 07:29:29;;;;;;;;;;;;;;;0.78;100.00;98539.41;5577432;31;34236;-70
2022/12/11 07:32:37;;;;;;;;;;;;;;;0.91;100.00;98557.31;5576883;31;34143;-70
2022/12/11 07:35:46;;;;;;;;;;;;;;;0.94;100.00;98553.56;5590791;31;34241;-70
2022/12/11 07:38:53;;;;;;;;;;;;;;;1.00;100.00;98553.78;5590803;31;34186;-70
2022/12/11 07:42:00;;;;;;;;;;;;;;;1.12;100.00;98556.97;5590377;31;35117;-69
2022/12/11 07:45:09;;;;;;;;;;;;;;;1.24;100.00;98572.25;5590707;31;34394;-68
2022/12/11 07:48:16;;;;;;;;;;;;;;;1.25;100.00;98573.91;5590326;31;34972;-69
2022/12/11 07:51:27;;;;;;;;;;;;;;;1.39;100.00;98585.56;5590541;31;34624;-69
2022/12/11 07:54:35;;;;;;;;;;;;;;;1.45;100.00;98582.34;5590470;31;34824;-70
2022/12/11 07:57:43;;;;;;;;;;;;;;;1.52;100.00;98593.00;5590420;31;34980;-70
2022/12/11 08:00:48;;;;;;;;;;;;;;;1.50;100.00;98595.75;5590214;31;34858;-70
2022/12/11 08:03:55;;;;;;;;;;;;;;;1.44;100.00;98606.00;5576137;31;33161;-71
2022/12/11 08:07:03;;;;;;;;;;;;;;;1.39;100.00;98630.00;5590410;31;34838;-71
2022/12/11 08:10:09;;;;;;;;;;;;;;;1.39;100.00;98616.09;5590602;31;34965;-70
2022/12/11 08:13:15;;;;;;;;;;;;;;;1.34;100.00;98618.34;5589510;31;34449;-71
2022/12/11 08:16:24;;;;;;;;;;;;;;;1.30;100.00;98615.22;5577114;31;34225;-71
2022/12/11 08:19:30;;;;;;;;;;;;;;;1.40;100.00;98633.44;5563919;31;35267;-71
2022/12/11 08:22:37;;;;;;;;;;;;;;;1.36;100.00;98638.13;5577038;31;34467;-71
2022/12/11 08:25:42;;;;;;;;;;;;;;;1.36;100.00;98632.88;5590281;31;34190;-71
2022/12/11 08:28:51;;;;;;;;;;;;;;;1.38;100.00;98648.41;5589918;31;34197;-71
2022/12/11 08:31:59;;;;;;;;;;;;;;;1.41;100.00;98646.31;5590202;31;34633;-70
2022/12/11 08:35:08;;;;;;;;;;;;;;;1.43;100.00;98643.56;5589225;31;34784;-71
2022/12/11 08:38:15;;;;;;;;;;;;;;;1.47;100.00;98653.56;5590290;31;34959;-73
2022/12/11 08:41:30;;;;;;;;;;;;;;;1.43;100.00;98651.41;5590352;31;34240;-72
2022/12/11 08:44:37;;;;;;;;;;;;;;;1.46;100.00;98646.69;5590001;31;34508;-71
2022/12/11 08:47:43;;;;;;;;;;;;;;;1.43;100.00;98667.06;5590058;31;34329;-71
2022/12/11 08:50:51;;;;;;;;;;;;;;;1.30;100.00;98660.47;5576109;31;34680;-71
2022/12/11 08:53:57;;;;;;;;;;;;;;;1.39;100.00;98668.34;5575826;31;33971;-70
2022/12/11 08:57:03;;;;;;;;;;;;;;;1.44;100.00;98668.72;5590164;31;34643;-70
2022/12/11 09:00:12;;;;;;;;;;;;;;;1.39;100.00;98679.62;5576872;31;34393;-72
2022/12/11 09:03:20;;;;;;;;;;;;;;;1.41;100.00;98695.13;5576784;31;34842;-71
2022/12/11 09:06:26;;;;;;;;;;;;;;;1.40;100.00;98699.56;5589858;31;34895;-73
2022/12/11 09:09:31;;;;;;;;;;;;;;;1.46;100.00;98703.34;5576148;31;32765;-71
2022/12/11 09:12:40;;;;;;;;;;;;;;;1.39;100.00;98694.47;5589813;31;34845;-71
2022/12/11 09:15:43;;;;;;;;;;;;;;;1.44;100.00;98700.91;5589715;31;34761;-73
2022/12/11 09:18:48;;;;;;;;;;;;;;;1.41;100.00;98713.41;5589980;31;34948;-73
2022/12/11 09:21:56;;;;;;;;;;;;;;;1.36;100.00;98711.25;5589796;31;34257;-72
2022/12/11 09:25:03;;;;;;;;;;;;;;;1.41;100.00;98697.75;5589676;31;34180;-72
2022/12/11 09:28:09;;;;;;;;;;;;;;;1.44;100.00;98700.91;5589778;31;34569;-71
2022/12/11 09:31:23;;;;;;;;;;;;;;;1.46;100.00;98700.72;5589764;31;34456;-71
2022/12/11 09:34:30;;;;;;;;;;;;;;;1.45;100.00;98696.50;5575678;31;33253;-72
2022/12/11 09:37:38;;;;;;;;;;;;;;;1.48;100.00;98696.19;5589612;31;34824;-72
2022/12/11 09:40:43;;;;;;;;;;;;;;;1.38;100.00;98693.66;5575628;31;35293;-72
2022/12/11 09:43:47;;;;;;;;;;;;;;;1.39;100.00;98699.72;5589180;31;34346;-72
2022/12/11 09:46:52;;;;;;;;;;;;;;;1.40;100.00;98698.75;5575297;31;36325;-73
2022/12/11 09:50:09;;;;;;;;;;;;;;;1.40;100.00;98696.94;5589566;31;34765;-71
2022/12/11 09:53:17;;;;;;;;;;;;;;;1.44;100.00;98700.91;5589333;31;34854;-72
2022/12/11 09:56:32;;;;;;;;;;;;;;;1.46;100.00;98713.78;5589314;31;34271;-71
2022/12/11 09:59:45;;;;;;;;;;;;;;;1.46;100.00;98695.50;5589053;31;34803;-73
2022/12/11 10:02:55;;;;;;;;;;;;;;;1.52;100.00;98690.50;5589126;31;34706;-74
2022/12/11 10:06:16;;;;;;;;;;;;;;;1.47;100.00;98697.97;5589126;31;34884;-71
2022/12/11 10:09:20;;;;;;;;;;;;;;;1.53;100.00;98689.53;5589214;31;34865;-72
2022/12/11 10:12:29;;;;;;;;;;;;;;;1.48;100.00;98680.50;5588757;31;34828;-73
2022/12/11 10:15:51;;;;;;;;;;;;;;;1.61;100.00;98671.28;5588856;31;34833;-73
2022/12/11 10:18:58;;;;;;;;;;;;;;;1.62;100.00;98670.31;5588914;31;34413;-71
2022/12/11 10:22:18;;;;;;;;;;;;;;;1.59;100.00;98682.87;5588816;31;34899;-73
2022/12/11 10:25:28;;;;;;;;;;;;;;;1.51;100.00;98699.31;5588812;31;34150;-73
2022/12/11 10:28:36;;;;;;;;;;;;;;;1.57;100.00;98695.28;5588773;31;34956;-72
2022/12/11 10:31:49;;;;;;;;;;;;;;;1.48;100.00;98704.03;5588806;31;34855;-74
2022/12/11 10:35:00;;;;;;;;;;;;;;;1.46;100.00;98716.41;5588790;31;34255;-73
2022/12/11 10:38:15;;;;;;;;;;;;;;;1.54;100.00;98716.50;5588646;31;34302;-72
2022/12/11 10:41:30;;;;;;;;;;;;;;;1.60;100.00;98711.47;5588775;31;34272;-73
2022/12/11 10:44:36;;;;;;;;;;;;;;;1.56;100.00;98702.28;5561890;31;33181;-72
2022/12/11 10:47:41;;;;;;;;;;;;;;;1.55;100.00;98723.38;5574880;31;34363;-72
2022/12/11 10:50:54;;;;;;;;;;;;;;;1.51;100.00;98719.38;5588366;31;34559;-73
2022/12/11 10:54:15;;;;;;;;;;;;;;;1.48;100.00;98724.94;5574337;31;34292;-70
2022/12/11 10:57:27;;;;;;;;;;;;;;;1.46;100.00;98743.34;5589799;31;34794;-74
2022/12/11 11:00:32;;;;;;;;;;;;;;;1.49;100.00;98744.88;5591147;31;34944;-73
2022/12/11 11:03:50;;;;;;;;;;;;;;;1.43;100.00;98741.06;5590896;31;34799;-72
2022/12/11 11:07:20;;;;;;;;;;;;;;;1.45;100.00;98728.69;5591191;31;34426;-71
2022/12/11 11:10:26;;;;;;;;;;;;;;;1.50;100.00;98738.69;5573428;31;34105;-72
2022/12/11 11:13:32;;;;;;;;;;;;;;;1.50;100.00;98741.28;5590921;31;34863;-73
2022/12/11 11:16:41;;;;;;;;;;;;;;;1.51;100.00;98745.53;5577596;31;34338;-72
2022/12/11 11:19:50;;;;;;;;;;;;;;;1.47;100.00;98733.72;5591016;31;34281;-72
2022/12/11 11:23:02;;;;;;;;;;;;;;;1.55;100.00;98746.88;5591061;31;34958;-71
2022/12/11 11:26:08;;;;;;;;;;;;;;;1.56;100.00;98735.44;5577051;31;33557;-72
2022/12/11 11:29:23;;;;;;;;;;;;;;;1.64;100.00;98725.06;5590585;31;34837;-74
2022/12/11 11:32:30;;;;;;;;;;;;;;;1.66;100.00;98723.09;5590897;31;34774;-73
2022/12/11 11:35:50;;;;;;;;;;;;;;;1.69;100.00;98721.00;5590739;31;34266;-74
2022/12/11 11:39:06;;;;;;;;;;;;;;;1.84;100.00;98725.72;5576711;31;34178;-72
2022/12/11 11:42:17;;;;;;;;;;;;;;;1.75;100.00;98732.66;5590793;31;34793;-72
2022/12/11 11:45:38;;;;;;;;;;;;;;;1.78;100.00;98758.50;5590657;31;34236;-74
2022/12/11 11:48:48;;;;;;;;;;;;;;;1.73;100.00;98751.13;5577280;31;34185;-74
2022/12/11 11:52:00;;;;;;;;;;;;;;;1.73;100.00;98763.38;5590516;31;34891;-73
2022/12/11 11:55:14;;;;;;;;;;;;;;;1.80;100.00;98760.94;5590368;31;35064;-72
2022/12/11 11:58:30;;;;;;;;;;;;;;;1.78;100.00;98748.06;5590624;31;34336;-72
2022/12/11 12:01:38;;;;;;;;;;;;;;;1.74;100.00;98765.00;5576258;31;33265;-73
2022/12/11 12:04:45;;;;;;;;;;;;;;;1.75;100.00;98772.69;5590347;31;34208;-73
2022/12/11 12:08:06;;;;;;;;;;;;;;;1.76;100.00;98773.50;5576284;31;34742;-73
2022/12/11 12:11:43;;;;;;;;;;;;;;;1.78;100.00;98789.87;5576876;31;34065;-72
2022/12/11 12:14:54;;;;;;;;;;;;;;;1.84;100.00;98793.69;5544021;31;32956;-72
2022/12/11 12:18:07;;;;;;;;;;;;;;;1.82;100.00;98795.63;5576407;31;33383;-72
2022/12/11 12:21:13;;;;;;;;;;;;;;;1.83;100.00;98792.03;5590893;31;34595;-74
2022/12/11 12:24:25;;;;;;;;;;;;;;;1.74;100.00;98794.56;5576294;31;35796;-72
2022/12/11 12:27:45;;;;;;;;;;;;;;;1.89;100.00;98800.09;5575983;31;35052;-73
2022/12/11 12:31:01;;;;;;;;;;;;;;;1.78;100.00;98791.66;5575764;31;34091;-71
2022/12/11 12:34:15;;;;;;;;;;;;;;;1.79;100.00;98802.00;5575427;31;34201;-73
2022/12/11 12:37:36;;;;;;;;;;;;;;;1.77;100.00;98795.25;5590320;31;34595;-73
2022/12/11 12:40:43;;;;;;;;;;;;;;;1.80;100.00;98798.38;5590183;31;34853;-74
2022/12/11 12:44:19;;;;;;;;;;;;;;;1.84;100.00;98802.31;5590187;31;34832;-72
2022/12/11 12:47:27;;;;;;;;;;;;;;;1.79;100.00;98796.75;5578096;31;34928;-72
2022/12/11 12:50:41;;;;;;;;;;;;;;;1.75;100.00;98791.00;5589848;31;35032;-73
2022/12/11 12:54:06;;;;;;;;;;;;;;;1.80;100.00;98802.78;5590143;31;34783;-74
2022/12/11 12:57:18;;;;;;;;;;;;;;;1.87;100.00;98809.06;5576191;31;34578;-73
2022/12/11 13:00:30;;;;;;;;;;;;;;;1.73;100.00;98805.19;5590381;31;35110;-72
2022/12/11 13:03:49;;;;;;;;;;;;;;;1.81;100.00;98823.56;5589756;31;34261;-73
2022/12/11 13:06:56;;;;;;;;;;;;;;;1.91;100.00;98840.00;5589890;31;34485;-73
2022/12/11 13:10:22;;;;;;;;;;;;;;;1.87;100.00;98843.88;5589943;31;34332;-74
2022/12/11 13:13:32;;;;;;;;;;;;;;;1.82;100.00;98851.34;5589932;31;34106;-73
2022/12/11 13:16:39;;;;;;;;;;;;;;;1.85;100.00;98858.88;5589846;31;34862;-72
2022/12/11 13:19:47;;;;;;;;;;;;;;;1.88;100.00;98855.16;5589162;31;34849;-73
2022/12/11 13:22:56;;;;;;;;;;;;;;;1.87;100.00;98863.97;5589963;31;34449;-74
2022/12/11 13:26:06;;;;;;;;;;;;;;;1.90;100.00;98868.91;5589928;31;34932;-72
2022/12/11 13:29:27;;;;;;;;;;;;;;;1.75;100.00;98869.41;5589842;31;34443;-74
2022/12/11 13:32:33;;;;;;;;;;;;;;;1.82;100.00;98866.22;5575350;31;35116;-72
2022/12/11 13:35:40;;;;;;;;;;;;;;;1.78;100.00;98863.09;5590837;31;34951;-72
2022/12/11 13:38:47;;;;;;;;;;;;;;;1.79;100.00;98880.41;5575388;31;35133;-73
2022/12/11 13:41:56;;;;;;;;;;;;;;;1.78;100.00;98885.78;5575888;31;34218;-73
2022/12/11 13:45:03;;;;;;;;;;;;;;;1.80;100.00;98883.84;5589458;31;34935;-73
2022/12/11 13:48:20;;;;;;;;;;;;;;;1.73;100.00;98886.22;5589455;31;34982;-72
2022/12/11 13:51:28;;;;;;;;;;;;;;;1.65;100.00;98894.81;5589621;31;34340;-74
2022/12/11 13:54:46;;;;;;;;;;;;;;;1.63;100.00;98894.16;5589318;31;34907;-73
2022/12/11 13:57:52;;;;;;;;;;;;;;;1.58;100.00;98885.91;5589451;31;34970;-73
2022/12/11 14:01:11;;;;;;;;;;;;;;;1.58;100.00;98890.31;5589348;31;35004;-73
2022/12/11 14:04:20;;;;;;;;;;;;;;;1.53;100.00;98895.16;5589145;31;34387;-72
2022/12/11 14:07:28;;;;;;;;;;;;;;;1.51;100.00;98897.91;5589019;31;34313;-73
2022/12/11 14:10:38;;;;;;;;;;;;;;;1.60;100.00;98911.87;5575311;31;33812;-72
2022/12/11 14:13:44;;;;;;;;;;;;;;;1.58;100.00;98916.47;5589243;31;34278;-72
2022/12/11 14:16:51;;;;;;;;;;;;;;;1.53;100.00;98926.53;5589374;31;34881;-73
2022/12/11 14:20:01;;;;;;;;;;;;;;;1.53;100.00;98929.13;5589276;31;34438;-72
2022/12/11 14:23:15;;;;;;;;;;;;;;;1.47;100.00;98938.38;5588863;31;34602;-74
2022/12/11 14:26:22;;;;;;;;;;;;;;;1.47;100.00;98940.16;5588720;31;34708;-74
2022/12/11 14:29:31;;;;;;;;;;;;;;;1.41;100.00;98938.94;5588876;31;34254;-72
2022/12/11 14:32:40;;;;;;;;;;;;;;;1.39;100.00;98946.12;5590262;31;34194;-75
2022/12/11 14:35:48;;;;;;;;;;;;;;;1.34;100.00;98968.44;5577032;31;34789;-71
2022/12/11 14:39:01;;;;;;;;;;;;;;;1.37;100.00;98968.12;5591262;31;34916;-73
2022/12/11 14:42:16;;;;;;;;;;;;;;;1.31;100.00;98956.47;5591040;31;34338;-72
2022/12/11 14:45:33;;;;;;;;;;;;;;;1.27;100.00;98978.63;5577414;31;34819;-73
2022/12/11 14:48:48;;;;;;;;;;;;;;;1.23;100.00;98972.84;5590772;31;35102;-74
2022/12/11 14:52:00;;;;;;;;;;;;;;;1.28;100.00;98965.41;5578319;31;34257;-72
2022/12/11 14:55:15;;;;;;;;;;;;;;;1.23;100.00;98978.09;5564336;31;35060;-73
2022/12/11 14:58:21;;;;;;;;;;;;;;;1.18;100.00;98985.53;5590809;31;34275;-72
2022/12/11 15:01:27;;;;;;;;;;;;;;;1.16;100.00;98974.38;5590865;31;34492;-73
2022/12/11 15:04:32;;;;;;;;;;;;;;;1.09;100.00;98970.72;5590877;31;34844;-72
2022/12/11 15:07:40;;;;;;;;;;;;;;;1.09;100.00;98982.94;5590601;31;34586;-73
2022/12/11 15:11:04;;;;;;;;;;;;;;;1.12;100.00;98991.31;5591130;31;34396;-72
2022/12/11 15:14:13;;;;;;;;;;;;;;;1.10;100.00;98992.44;5577166;31;32623;-74
2022/12/11 15:17:18;;;;;;;;;;;;;;;1.11;100.00;99001.91;5590966;31;34163;-73
2022/12/11 15:20:27;;;;;;;;;;;;;;;1.06;100.00;99004.13;5590970;31;35126;-71
2022/12/11 15:23:37;;;;;;;;;;;;;;;1.09;100.00;99014.28;5590896;31;35047;-74
2022/12/11 15:26:46;;;;;;;;;;;;;;;1.02;100.00;99000.94;5591207;31;34360;-73
2022/12/11 15:29:54;;;;;;;;;;;;;;;1.00;100.00;99015.97;5590672;31;34577;-71
2022/12/11 15:33:02;;;;;;;;;;;;;;;0.98;100.00;99006.59;5576667;31;34434;-72
2022/12/11 15:36:23;;;;;;;;;;;;;;;1.04;100.00;99011.28;5576016;31;34252;-72
2022/12/11 15:39:30;;;;;;;;;;;;;;;0.99;100.00;99006.47;5577129;31;34768;-72
2022/12/11 15:42:40;;;;;;;;;;;;;;;0.91;100.00;99014.19;5590276;31;34818;-72
2022/12/11 15:45:47;;;;;;;;;;;;;;;0.90;100.00;99015.16;5590646;31;34790;-73
2022/12/11 15:48:55;;;;;;;;;;;;;;;0.87;100.00;99008.41;5590604;31;34231;-74
2022/12/11 15:52:03;;;;;;;;;;;;;;;0.92;100.00;99013.19;5564386;31;34488;-72
2022/12/11 15:55:09;;;;;;;;;;;;;;;0.87;100.00;99010.22;5590505;31;35009;-72
2022/12/11 15:58:20;;;;;;;;;;;;;;;0.84;100.00;99026.13;5590460;31;34115;-73
2022/12/11 16:01:23;;;;;;;;;;;;;;;0.79;100.00;99023.94;5590240;31;34416;-73
2022/12/11 16:04:28;;;;;;;;;;;;;;;0.82;100.00;99022.88;5576386;31;34107;-73
2022/12/11 16:07:33;;;;;;;;;;;;;;;0.82;100.00;99023.66;5590638;31;34359;-73
2022/12/11 16:10:42;;;;;;;;;;;;;;;0.73;100.00;99034.09;5576667;31;34543;-73
2022/12/11 16:13:47;;;;;;;;;;;;;;;0.77;100.00;99028.50;5576738;31;34209;-73
2022/12/11 16:16:53;;;;;;;;;;;;;;;0.71;100.00;99041.28;5576042;31;34242;-74
2022/12/11 16:19:57;;;;;;;;;;;;;;;0.72;100.00;99042.94;5590486;31;34635;-73
2022/12/11 16:23:05;;;;;;;;;;;;;;;0.66;100.00;99056.53;5563841;31;34766;-72
2022/12/11 16:26:08;;;;;;;;;;;;;;;0.66;100.00;99051.31;5590333;31;34885;-73
2022/12/11 16:29:12;;;;;;;;;;;;;;;0.69;100.00;99048.41;5590247;31;34341;-74
2022/12/11 16:32:16;;;;;;;;;;;;;;;0.63;100.00;99041.16;5590364;31;34848;-72
2022/12/11 16:35:22;;;;;;;;;;;;;;;0.60;100.00;99047.44;5590097;31;34232;-73